Terminal Aerodrome Forecast
Issued by NWS

Home | Current Version | Previous Version | Text Only | Print | Product List | Glossary On
Versions: 1 2 3 4 5 6 7 8 9 10 11 12 13
000
FTUS46 KSGX 251134
TAFSNA
TAF
KSNA 251134Z 2512/2612 VRB04KT P6SM SKC WS015/06020KT
     FM252000 24009KT P6SM SKC
     FM260200 VRB04KT P6SM SKC
     FM260900 VRB04KT P6SM SKC WS015/07020KT=

USA.gov is the U.S. government's official web portal to all federal, state and local government web resources and services.